createdAt,value
2019-02-22T00:03:06.826Z,56.07
2019-02-22T00:07:11.094Z,55.96
2019-02-22T00:11:15.492Z,55.98
2019-02-22T00:15:19.729Z,56.17
2019-02-22T00:19:23.956Z,56.44
2019-02-22T00:23:28.210Z,56.96
2019-02-22T00:27:32.477Z,58.58
2019-02-22T00:31:37.002Z,58.44
2019-02-22T00:35:41.295Z,58.94
2019-02-22T00:39:45.446Z,59.98
2019-02-22T00:43:49.671Z,60.00
2019-02-22T00:47:53.908Z,60.28
2019-02-22T00:51:58.185Z,61.02
2019-02-22T00:56:02.414Z,60.91
2019-02-22T01:00:07.246Z,61.27
2019-02-22T01:04:11.496Z,61.40
2019-02-22T01:08:15.719Z,61.39
2019-02-22T01:12:19.960Z,61.94
2019-02-22T01:16:24.558Z,61.80
2019-02-22T01:20:28.795Z,62.14
2019-02-22T01:24:33.024Z,62.33
2019-02-22T01:28:37.286Z,62.62
2019-02-22T01:32:41.481Z,62.84
2019-02-22T01:36:45.682Z,63.15
2019-02-22T01:40:49.882Z,63.52
2019-02-22T01:44:54.112Z,63.68
2019-02-22T01:48:58.306Z,64.05
2019-02-22T01:53:02.539Z,64.38
2019-02-22T01:57:06.837Z,64.64
2019-02-22T02:01:11.050Z,64.90
2019-02-22T02:05:15.269Z,65.21
2019-02-22T02:09:19.470Z,65.59
2019-02-22T02:13:24.030Z,65.71
2019-02-22T02:17:28.216Z,66.06
2019-02-22T02:21:32.798Z,66.50
2019-02-22T02:25:37.026Z,66.72
2019-02-22T02:29:41.634Z,67.05
2019-02-22T02:33:45.813Z,66.78
2019-02-22T02:37:50.043Z,67.43
2019-02-22T02:41:54.625Z,67.13
2019-02-22T02:45:58.848Z,68.15
2019-02-22T02:50:03.047Z,67.93
2019-02-22T02:54:07.265Z,68.15
2019-02-22T02:58:11.474Z,68.71
2019-02-22T03:02:25.559Z,68.42
2019-02-22T03:06:37.982Z,68.80
2019-02-22T03:10:42.159Z,68.88
2019-02-22T03:14:46.373Z,69.07
2019-02-22T03:18:50.592Z,69.36
2019-02-22T03:22:54.812Z,69.60
2019-02-22T03:26:59.355Z,70.53
2019-02-22T03:31:05.402Z,70.51
2019-02-22T03:35:09.680Z,70.16
2019-02-22T03:39:13.895Z,70.79
2019-02-22T03:43:18.151Z,71.48
2019-02-22T03:47:22.406Z,71.26
2019-02-22T03:51:26.639Z,72.36
2019-02-22T03:55:30.898Z,72.50
2019-02-22T03:59:35.105Z,73.01
2019-02-22T04:03:39.450Z,73.98
2019-02-22T04:07:43.646Z,74.04
2019-02-22T04:11:47.887Z,73.88
2019-02-22T04:15:52.119Z,74.30
2019-02-22T04:19:56.332Z,74.21
2019-02-22T04:24:00.573Z,74.53
2019-02-22T04:28:04.801Z,74.51
2019-02-22T04:32:09.075Z,75.02
2019-02-22T04:36:13.293Z,74.29
2019-02-22T04:40:17.899Z,74.51
2019-02-22T04:44:22.135Z,75.52
2019-02-22T04:48:26.357Z,74.55
2019-02-22T04:52:30.590Z,75.05
2019-02-22T04:56:34.831Z,75.42
2019-02-22T05:00:39.143Z,75.43
2019-02-22T05:04:43.356Z,75.78
2019-02-22T05:08:47.551Z,75.64
2019-02-22T05:12:51.775Z,75.45
2019-02-22T05:16:58.618Z,75.13
2019-02-22T05:21:03.221Z,75.08
2019-02-22T05:25:16.405Z,75.50
2019-02-22T05:29:23.935Z,75.07
2019-02-22T05:33:29.822Z,75.50
2019-02-22T05:37:34.059Z,75.59
2019-02-22T05:41:38.249Z,75.53
2019-02-22T05:45:42.462Z,75.72
2019-02-22T05:49:46.692Z,75.53
2019-02-22T05:53:50.945Z,75.51
2019-02-22T05:57:55.156Z,75.13
2019-02-22T06:01:59.977Z,76.09
2019-02-22T06:06:04.125Z,75.66
2019-02-22T06:10:08.810Z,76.34
2019-02-22T06:14:13.137Z,77.01
2019-02-22T06:18:17.717Z,76.53
2019-02-22T06:22:29.733Z,76.65
2019-02-22T06:26:30.388Z,76.58
2019-02-22T06:30:34.108Z,77.07
2019-02-22T06:34:38.327Z,76.91
2019-02-22T06:38:42.518Z,77.06
2019-02-22T06:42:46.839Z,76.94
2019-02-22T06:46:51.005Z,76.87
2019-02-22T06:50:55.218Z,77.25
2019-02-22T06:54:59.459Z,76.95
2019-02-22T06:59:03.680Z,78.39
2019-02-22T07:03:08.530Z,77.77
2019-02-22T07:07:12.846Z,77.66
2019-02-22T07:11:37.888Z,77.26
2019-02-22T07:15:42.278Z,77.76
2019-02-22T07:19:46.669Z,77.55
2019-02-22T07:23:50.905Z,78.89
2019-02-22T07:27:55.159Z,77.89
2019-02-22T07:32:05.941Z,78.29
2019-02-22T07:36:05.900Z,78.60
2019-02-22T07:40:10.089Z,78.34
2019-02-22T07:44:14.349Z,78.28
2019-02-22T07:48:18.538Z,78.37
2019-02-22T07:52:22.895Z,78.29
2019-02-22T07:56:27.152Z,78.51
2019-02-22T08:00:31.390Z,78.35
2019-02-22T08:04:35.639Z,78.14
2019-02-22T08:08:39.889Z,78.15
2019-02-22T08:12:44.230Z,77.95
2019-02-22T08:16:48.887Z,77.43
2019-02-22T08:20:53.135Z,77.70
2019-02-22T08:24:57.353Z,77.23
2019-02-22T08:29:01.608Z,76.92
2019-02-22T08:33:05.894Z,76.57
2019-02-22T08:37:10.182Z,76.06
2019-02-22T08:41:14.537Z,76.16
2019-02-22T08:45:18.762Z,75.11
2019-02-22T08:49:23.389Z,74.54
2019-02-22T08:53:27.627Z,74.43
2019-02-22T08:57:31.860Z,73.90
2019-02-22T09:01:36.235Z,74.18
2019-02-22T09:05:40.717Z,73.68
2019-02-22T09:09:45.052Z,73.17
2019-02-22T09:13:49.428Z,73.10
2019-02-22T09:17:55.383Z,72.11
2019-02-22T09:21:59.632Z,71.28
2019-02-22T09:26:03.895Z,69.95
2019-02-22T09:30:09.366Z,69.18
2019-02-22T09:34:13.646Z,69.58
2019-02-22T09:38:17.903Z,68.97
2019-02-22T09:42:22.357Z,68.80
2019-02-22T09:46:26.695Z,68.72
2019-02-22T09:50:30.998Z,69.39
2019-02-22T09:54:35.216Z,69.06
2019-02-22T09:58:39.468Z,69.42
2019-02-22T10:02:44.869Z,70.01
2019-02-22T10:06:49.378Z,70.03
2019-02-22T10:10:53.640Z,70.46
2019-02-22T10:14:57.846Z,69.16
2019-02-22T10:19:02.264Z,68.55
2019-02-22T10:23:06.800Z,68.02
2019-02-22T10:27:12.139Z,67.56
2019-02-22T10:31:16.595Z,66.67
2019-02-22T10:35:20.868Z,66.33
2019-02-22T10:39:25.076Z,67.05
2019-02-22T10:43:29.410Z,67.60
2019-02-22T10:47:35.721Z,66.22
2019-02-22T10:51:51.649Z,66.32
2019-02-22T10:55:55.858Z,66.29
2019-02-22T11:00:00.293Z,65.24
2019-02-22T11:04:04.692Z,65.20
2019-02-22T11:08:08.875Z,65.23
2019-02-22T11:12:13.106Z,62.99
2019-02-22T11:16:17.320Z,61.78
2019-02-22T11:20:21.533Z,61.02
2019-02-22T11:24:25.762Z,62.49
2019-02-22T11:28:29.985Z,62.50
2019-02-22T11:32:34.274Z,62.74
2019-02-22T11:36:38.601Z,63.50
2019-02-22T11:40:42.823Z,62.91
2019-02-22T11:44:47.068Z,62.81
2019-02-22T11:48:51.245Z,63.22
2019-02-22T11:52:55.456Z,63.80
2019-02-22T11:56:59.744Z,63.60
2019-02-22T12:01:06.467Z,63.72
2019-02-22T12:05:10.677Z,63.00
2019-02-22T12:09:15.201Z,63.68
2019-02-22T12:13:19.397Z,64.31
2019-02-22T12:17:23.616Z,62.76
2019-02-22T12:21:27.825Z,63.37
2019-02-22T12:25:32.037Z,63.63
2019-02-22T12:29:36.627Z,62.79
2019-02-22T12:33:40.804Z,63.08
2019-02-22T12:37:46.014Z,63.33
2019-02-22T12:41:50.271Z,63.25
2019-02-22T12:45:54.536Z,63.21
2019-02-22T12:49:58.707Z,62.88
2019-02-22T12:54:02.960Z,62.68
2019-02-22T12:58:07.571Z,62.17
2019-02-22T13:02:12.197Z,62.69
2019-02-22T13:06:16.423Z,62.87
2019-02-22T13:10:20.919Z,62.87
2019-02-22T13:14:25.121Z,63.03
2019-02-22T13:18:29.488Z,63.07
2019-02-22T13:22:33.672Z,63.03
2019-02-22T13:26:38.246Z,63.31
2019-02-22T13:30:42.439Z,62.89
2019-02-22T13:34:46.694Z,64.11
2019-02-22T13:38:50.906Z,63.71
2019-02-22T13:42:55.153Z,62.88
2019-02-22T13:46:59.386Z,62.63
2019-02-22T13:51:03.569Z,62.32
2019-02-22T13:55:09.355Z,62.80
2019-02-22T13:59:13.500Z,62.73
2019-02-22T14:03:17.719Z,61.82
2019-02-22T14:07:21.904Z,62.41
2019-02-22T14:11:26.116Z,61.77
2019-02-22T14:15:37.846Z,61.87
2019-02-22T14:19:36.271Z,61.84
2019-02-22T14:23:40.525Z,59.00
2019-02-22T14:27:44.753Z,59.94
2019-02-22T14:31:49.145Z,59.31
2019-02-22T14:35:53.331Z,58.65
2019-02-22T14:40:03.287Z,58.00
2019-02-22T14:44:03.812Z,58.59
2019-02-22T14:48:08.440Z,59.26
2019-02-22T14:52:12.988Z,58.74
2019-02-22T14:56:17.156Z,59.24
2019-02-22T15:00:21.394Z,58.35
2019-02-22T15:04:25.610Z,59.32
2019-02-22T15:08:29.826Z,58.98
2019-02-22T15:12:34.040Z,58.50
2019-02-22T15:16:57.561Z,57.32
2019-02-22T15:21:01.811Z,57.84
2019-02-22T15:25:07.700Z,57.67
2019-02-22T15:29:11.951Z,57.95
2019-02-22T15:33:16.224Z,58.36
2019-02-22T15:37:20.436Z,56.33
2019-02-22T15:41:24.663Z,56.95
2019-02-22T15:45:28.888Z,55.96
2019-02-22T15:49:33.304Z,56.60
2019-02-22T15:53:37.471Z,55.48
2019-02-22T15:57:41.692Z,56.67
2019-02-22T16:01:54.960Z,55.40
2019-02-22T16:05:52.243Z,55.85
2019-02-22T16:09:56.482Z,56.38
2019-02-22T16:14:00.669Z,55.40
2019-02-22T16:18:04.925Z,55.89
2019-02-22T16:22:09.111Z,56.16
2019-02-22T16:26:16.916Z,55.09
2019-02-22T16:30:23.219Z,56.15
2019-02-22T16:34:27.501Z,56.62
2019-02-22T16:38:31.707Z,56.20
2019-02-22T16:42:35.918Z,56.83
2019-02-22T16:46:40.153Z,55.25
2019-02-22T16:50:44.342Z,55.07
2019-02-22T16:54:48.556Z,56.00
2019-02-22T16:58:52.742Z,55.53
2019-02-22T17:02:56.961Z,55.93
2019-02-22T17:07:01.343Z,55.40
2019-02-22T17:11:05.572Z,54.33
2019-02-22T17:15:10.516Z,54.19
2019-02-22T17:19:14.746Z,54.98
2019-02-22T17:23:18.968Z,55.47
2019-02-22T17:27:23.179Z,55.21
2019-02-22T17:31:27.391Z,55.28
2019-02-22T17:35:31.685Z,55.80
2019-02-22T17:39:35.954Z,54.60
2019-02-22T17:43:40.168Z,55.13
2019-02-22T17:47:44.428Z,54.67
2019-02-22T17:51:48.590Z,55.54
2019-02-22T17:55:52.810Z,55.33
2019-02-22T17:59:57.108Z,56.01
2019-02-22T18:04:01.331Z,55.07
2019-02-22T18:08:05.616Z,55.49
2019-02-22T18:12:09.835Z,56.08
2019-02-22T18:16:14.016Z,55.76
2019-02-22T18:20:18.231Z,57.25
2019-02-22T18:24:22.716Z,56.05
2019-02-22T18:28:26.948Z,55.88
2019-02-22T18:32:31.150Z,55.50
2019-02-22T18:36:35.353Z,54.60
2019-02-22T18:40:39.546Z,54.25
2019-02-22T18:44:43.832Z,54.96
2019-02-22T18:48:48.048Z,54.33
2019-02-22T18:52:52.260Z,54.57
2019-02-22T18:56:56.483Z,54.34
2019-02-22T19:01:00.720Z,54.31
2019-02-22T19:05:05.024Z,54.15
2019-02-22T19:09:09.223Z,54.21
2019-02-22T19:13:13.451Z,53.40
2019-02-22T19:17:17.660Z,54.35
2019-02-22T19:21:21.887Z,53.20
2019-02-22T19:25:26.097Z,53.26
2019-02-22T19:29:31.089Z,53.93
2019-02-22T19:33:36.101Z,54.43
2019-02-22T19:37:40.292Z,53.36
2019-02-22T19:41:45.401Z,52.94
2019-02-22T19:45:49.927Z,52.78
2019-02-22T19:49:56.648Z,52.78
2019-02-22T19:54:00.088Z,53.02
2019-02-22T19:58:04.304Z,52.83
2019-02-22T20:02:08.545Z,53.40
2019-02-22T20:06:12.827Z,53.20
2019-02-22T20:10:18.520Z,52.37
2019-02-22T20:14:22.977Z,54.06
2019-02-22T20:18:27.201Z,52.16
2019-02-22T20:22:31.443Z,51.96
2019-02-22T20:26:35.625Z,53.25
2019-02-22T20:30:39.836Z,52.77
2019-02-22T20:34:44.307Z,52.10
2019-02-22T20:38:48.545Z,53.51
2019-02-22T20:42:53.696Z,53.28
2019-02-22T20:46:57.927Z,52.86
2019-02-22T20:51:02.127Z,52.65
2019-02-22T20:55:06.766Z,53.31
2019-02-22T20:59:10.988Z,53.35
2019-02-22T21:03:16.268Z,52.05
2019-02-22T21:07:20.520Z,52.19
2019-02-22T21:15:28.251Z,51.31
2019-02-22T21:19:32.447Z,51.87
2019-02-22T21:23:36.666Z,51.79
2019-02-22T21:27:40.888Z,52.27
2019-02-22T21:31:45.132Z,53.08
2019-02-22T21:35:49.360Z,53.15
2019-02-22T21:39:53.600Z,52.91
2019-02-22T21:43:57.851Z,52.78
2019-02-22T21:48:02.027Z,52.48
2019-02-22T21:52:06.266Z,52.03
2019-02-22T21:56:11.037Z,52.68
2019-02-22T22:00:17.258Z,52.49
2019-02-22T22:04:21.469Z,52.07
2019-02-22T22:08:25.951Z,51.83
2019-02-22T22:12:30.183Z,52.85
2019-02-22T22:16:34.348Z,52.19
2019-02-22T22:20:38.570Z,52.04
2019-02-22T22:24:42.788Z,52.70
2019-02-22T22:28:46.997Z,52.59
2019-02-22T22:32:52.689Z,53.20
2019-02-22T22:36:57.033Z,53.67
2019-02-22T22:41:01.217Z,52.64
2019-02-22T22:45:06.058Z,53.45
2019-02-22T22:49:10.404Z,53.76
2019-02-22T22:53:14.978Z,53.74
2019-02-22T22:57:19.157Z,52.81
2019-02-22T23:01:25.522Z,53.38
2019-02-22T23:05:29.958Z,53.42
2019-02-22T23:09:34.200Z,53.73
2019-02-22T23:13:38.422Z,54.63
2019-02-22T23:17:43.047Z,54.49
2019-02-22T23:21:47.271Z,54.54
2019-02-22T23:25:51.502Z,55.11
2019-02-22T23:29:55.728Z,54.91
2019-02-22T23:33:59.954Z,54.93
2019-02-22T23:38:05.416Z,54.21
2019-02-22T23:42:09.669Z,54.53
2019-02-22T23:46:14.253Z,54.06
2019-02-22T23:50:18.538Z,54.93
2019-02-22T23:54:22.917Z,54.58
2019-02-22T23:58:27.158Z,55.18
